Time;durP1;ratioP1;P1;durP2;ratioP2;P2;SDS_P1;SDS_P2;PMS_P1;PMS_P2;Temp;Humidity;BMP_temperature;BMP_pressure;BME280_temperature;BME280_humidity;BME280_pressure;Samples;Min_cycle;Max_cycle;Signal;HPM_P1;HPM_P2
2022/09/04 00:01:29;;;;;;;3.57;2.73;;;29.10;71.00;;;;;;5024940;28;94516;-51
2022/09/04 00:03:59;;;;;;;5.30;3.00;;;;;;;;;;5030862;28;94939;-51
2022/09/04 00:06:30;;;;;;;3.90;2.57;;;29.00;68.60;;;;;;5037269;28;92254;-51
2022/09/04 00:09:05;;;;;;;4.53;2.37;;;29.10;71.50;;;;;;5037378;28;92069;-52
2022/09/04 00:11:40;;;;;;;3.67;2.60;;;29.00;71.40;;;;;;5037301;28;94421;-50
2022/09/04 00:14:10;;;;;;;5.67;2.67;;;29.10;71.40;;;;;;5037525;28;92788;-50
2022/09/04 00:16:42;;;;;;;2.40;2.20;;;29.10;71.50;;;;;;5037030;28;92002;-51
2022/09/04 00:19:14;;;;;;;3.07;2.33;;;29.10;71.50;;;;;;5037503;28;91389;-52
2022/09/04 00:21:45;;;;;;;2.43;2.20;;;29.10;71.50;;;;;;5037038;28;94287;-51
2022/09/04 00:24:15;;;;;;;3.33;2.20;;;29.10;71.50;;;;;;5036974;28;93830;-50
2022/09/04 00:26:49;;;;;;;4.97;2.43;;;29.10;71.60;;;;;;5036732;28;94489;-50
2022/09/04 00:29:20;;;;;;;5.77;2.90;;;29.00;71.30;;;;;;5031975;28;91956;-50
2022/09/04 00:31:50;;;;;;;2.67;2.03;;;29.10;71.30;;;;;;5028491;28;94127;-52
2022/09/04 00:34:27;;;;;;;2.83;2.50;;;29.10;71.80;;;;;;5041123;28;92815;-53
2022/09/04 00:36:57;;;;;;;4.13;2.70;;;29.00;71.60;;;;;;5034007;28;92026;-52
2022/09/04 00:39:28;;;;;;;3.83;2.13;;;29.10;71.50;;;;;;5040491;28;92079;-50
2022/09/04 00:42:02;;;;;;;4.83;2.60;;;29.10;72.10;;;;;;5035814;28;94326;-50
2022/09/04 00:44:47;;;;;;;3.33;2.37;;;29.00;71.80;;;;;;5039206;28;94017;-50
2022/09/04 00:47:47;;;;;;;2.30;1.87;;;29.10;71.80;;;;;;5035048;27;92172;-50
2022/09/04 00:50:25;;;;;;;4.00;2.30;;;29.00;71.70;;;;;;5037371;28;92174;-52
2022/09/04 00:53:21;;;;;;;2.63;2.00;;;29.00;71.80;;;;;;5037631;28;95298;-52
2022/09/04 00:55:56;;;;;;;5.83;2.47;;;29.00;71.60;;;;;;5037252;28;94791;-50
2022/09/04 00:58:31;;;;;;;2.60;1.87;;;29.00;71.80;;;;;;5039266;28;92067;-52
2022/09/04 01:00:59;;;;;;;2.27;2.07;;;29.00;71.80;;;;;;5040706;28;92051;-50
2022/09/04 01:04:06;;;;;;;4.20;2.43;;;29.00;72.80;;;;;;5020515;28;94489;-51
2022/09/04 01:06:35;;;;;;;4.53;2.77;;;28.90;71.50;;;;;;5003086;28;92385;-51
2022/09/04 01:09:31;;;;;;;2.27;2.03;;;28.90;72.00;;;;;;5039645;28;92156;-50
2022/09/04 01:12:07;;;;;;;3.00;1.87;;;28.90;71.80;;;;;;4963324;28;91451;-52
2022/09/04 01:14:40;;;;;;;3.80;2.17;;;28.90;71.80;;;;;;5009002;28;93145;-52
2022/09/04 01:17:12;;;;;;;2.07;1.73;;;28.60;71.70;;;;;;5009329;28;94009;-51
2022/09/04 01:19:48;;;;;;;2.27;2.00;;;28.90;71.80;;;;;;5019172;28;93014;-51
2022/09/04 01:22:24;;;;;;;4.00;2.40;;;28.90;73.10;;;;;;5019583;28;92329;-51
2022/09/04 01:25:13;;;;;;;2.97;1.70;;;28.90;73.10;;;;;;5019084;28;94281;-52
2022/09/04 01:27:48;;;;;;;3.40;1.87;;;28.90;72.20;;;;;;5013700;28;92961;-52
2022/09/04 01:30:17;;;;;;;3.10;1.60;;;28.90;72.10;;;;;;5017816;28;92088;-50
2022/09/04 01:32:53;;;;;;;2.63;1.83;;;29.10;71.90;;;;;;5013965;28;94116;-52
2022/09/04 01:35:26;;;;;;;3.37;2.17;;;28.90;72.30;;;;;;5012415;28;94245;-51
2022/09/04 01:37:59;;;;;;;4.50;2.10;;;28.90;72.00;;;;;;5012986;28;92875;-52
2022/09/04 01:40:35;;;;;;;2.43;1.87;;;28.90;72.20;;;;;;5011926;28;93898;-50
2022/09/04 01:43:07;;;;;;;1.80;1.70;;;28.90;72.10;;;;;;5011549;28;94013;-52
2022/09/04 01:45:58;;;;;;;2.47;1.63;;;28.90;72.00;;;;;;5009366;28;95032;-51
2022/09/04 01:48:30;;;;;;;2.67;1.80;;;28.90;71.80;;;;;;5002026;28;93812;-51
2022/09/04 01:50:59;;;;;;;2.03;1.93;;;28.90;72.20;;;;;;5013726;28;94031;-51
2022/09/04 01:53:27;;;;;;;2.40;1.50;;;28.90;72.10;;;;;;5019034;28;92095;-51
2022/09/04 01:56:02;;;;;;;2.07;1.73;;;28.90;72.00;;;;;;5019006;28;93335;-52
2022/09/04 01:58:36;;;;;;;2.83;1.70;;;28.90;72.00;;;;;;5004644;28;92887;-52
2022/09/04 02:01:07;;;;;;;2.67;1.63;;;28.90;71.90;;;;;;5011336;28;92186;-50
2022/09/04 02:03:39;;;;;;;5.40;1.80;;;28.80;71.90;;;;;;5018278;28;91461;-50
2022/09/04 02:06:12;;;;;;;1.93;1.50;;;28.90;72.00;;;;;;5017854;28;94164;-52
2022/09/04 02:08:59;;;;;;;2.87;1.87;;;28.90;71.90;;;;;;5017766;28;94024;-52
2022/09/04 02:11:28;;;;;;;3.30;1.80;;;28.90;72.90;;;;;;5026211;28;93102;-52
2022/09/04 02:14:16;;;;;;;2.50;1.60;;;28.80;71.90;;;;;;5038813;28;93782;-50
2022/09/04 02:16:49;;;;;;;3.73;1.57;;;28.80;71.80;;;;;;5038637;28;94093;-52
2022/09/04 02:19:23;;;;;;;2.47;1.63;;;28.80;71.80;;;;;;5037948;28;93769;-51
2022/09/04 02:21:55;;;;;;;2.10;1.47;;;28.80;71.90;;;;;;5036661;28;92176;-50
2022/09/04 02:24:25;;;;;;;1.70;1.40;;;28.80;71.90;;;;;;5038808;28;92143;-52
2022/09/04 02:26:57;;;;;;;2.60;1.70;;;28.80;72.10;;;;;;5038257;28;93267;-50
2022/09/04 02:29:30;;;;;;;1.93;1.63;;;28.80;71.70;;;;;;5037868;28;93998;-52
2022/09/04 02:32:03;;;;;;;1.40;1.20;;;28.80;72.20;;;;;;5038252;28;92160;-52
2022/09/04 02:34:37;;;;;;;5.20;1.30;;;28.80;72.20;;;;;;5038664;28;92111;-50
2022/09/04 02:37:08;;;;;;;1.30;1.20;;;28.80;71.90;;;;;;5037245;28;95342;-50
2022/09/04 02:39:43;;;;;;;1.63;1.40;;;28.80;72.20;;;;;;5037879;28;94875;-50
2022/09/04 02:42:16;;;;;;;3.53;1.50;;;28.80;72.20;;;;;;5039136;28;93666;-50
2022/09/04 02:44:48;;;;;;;1.50;1.00;;;28.80;72.50;;;;;;5037804;27;92038;-50
2022/09/04 02:47:21;;;;;;;1.63;1.20;;;28.70;72.20;;;;;;5038416;28;94445;-51
2022/09/04 02:49:55;;;;;;;1.63;1.37;;;28.80;72.50;;;;;;5038066;28;92909;-52
2022/09/04 02:52:52;;;;;;;3.40;1.50;;;28.80;72.50;;;;;;5037511;27;92189;-50
2022/09/04 02:55:30;;;;;;;1.73;1.37;;;28.70;72.20;;;;;;5033483;28;91398;-51
2022/09/04 02:58:04;;;;;;;1.57;1.47;;;28.80;72.40;;;;;;5037987;28;93998;-50
2022/09/04 03:00:40;;;;;;;1.50;1.40;;;28.70;72.50;;;;;;5037752;28;94103;-50
2022/09/04 03:03:10;;;;;;;2.87;1.63;;;28.70;72.50;;;;;;5037839;28;93041;-50
2022/09/04 03:05:41;;;;;;;2.57;1.53;;;28.70;72.40;;;;;;5037918;28;92102;-51
2022/09/04 03:08:14;;;;;;;2.17;1.60;;;28.70;72.60;;;;;;5037355;28;94366;-50
2022/09/04 03:10:44;;;;;;;1.97;1.63;;;28.70;72.70;;;;;;5036994;28;93826;-51
2022/09/04 03:13:15;;;;;;;1.80;1.60;;;28.70;72.50;;;;;;5038229;27;92087;-50
2022/09/04 03:15:45;;;;;;;3.13;1.53;;;28.70;72.70;;;;;;5037933;28;93741;-51
2022/09/04 03:18:17;;;;;;;2.33;1.87;;;28.70;72.70;;;;;;5037353;28;93816;-50
2022/09/04 03:20:47;;;;;;;2.40;1.70;;;28.70;72.70;;;;;;5035570;28;93321;-50
2022/09/04 03:23:18;;;;;;;1.80;1.50;;;28.70;73.00;;;;;;5027583;28;92026;-50
2022/09/04 03:26:05;;;;;;;1.67;1.40;;;28.70;72.90;;;;;;5035921;28;92024;-51
2022/09/04 03:28:38;;;;;;;1.33;1.23;;;28.70;73.00;;;;;;5029100;28;95373;-53
2022/09/04 03:31:17;;;;;;;2.13;1.40;;;28.70;73.00;;;;;;5029742;28;94894;-52
2022/09/04 03:33:46;;;;;;;2.70;1.83;;;28.70;73.10;;;;;;5032200;28;92122;-51
2022/09/04 03:36:16;;;;;;;2.10;1.77;;;;;;;;;;5031985;28;93972;-51
2022/09/04 03:38:48;;;;;;;1.70;1.40;;;28.60;70.20;;;;;;5028281;28;93199;-51
2022/09/04 03:41:29;;;;;;;1.30;1.20;;;28.70;73.20;;;;;;5029232;27;92615;-51
2022/09/04 03:44:03;;;;;;;2.73;1.60;;;28.70;73.00;;;;;;5032618;28;92286;-52
2022/09/04 03:46:39;;;;;;;2.00;1.50;;;28.60;73.00;;;;;;5037707;28;91392;-52
2022/09/04 03:49:12;;;;;;;1.73;1.63;;;28.70;73.30;;;;;;5036740;28;94296;-51
2022/09/04 03:51:47;;;;;;;1.53;1.10;;;28.70;73.10;;;;;;5037954;28;93930;-52
2022/09/04 03:54:24;;;;;;;2.47;1.50;;;28.70;73.20;;;;;;5037277;28;93114;-51
2022/09/04 03:57:07;;;;;;;2.53;1.53;;;28.60;73.20;;;;;;5037431;28;93203;-51
2022/09/04 03:59:52;;;;;;;1.47;1.00;;;28.60;73.20;;;;;;5036064;28;94675;-51
2022/09/04 04:02:25;;;;;;;1.33;1.20;;;28.60;73.30;;;;;;5036295;27;93842;-51
2022/09/04 04:05:17;;;;;;;2.03;1.77;;;28.60;73.40;;;;;;5041208;28;92114;-51
2022/09/04 04:07:51;;;;;;;1.90;1.40;;;28.70;73.50;;;;;;5040825;28;92105;-51
2022/09/04 04:10:29;;;;;;;1.50;1.40;;;28.70;73.40;;;;;;5039979;28;93453;-51
2022/09/04 04:13:32;;;;;;;1.57;1.23;;;28.60;73.50;;;;;;5041069;28;93863;-51
2022/09/04 04:16:09;;;;;;;1.57;1.00;;;28.60;73.50;;;;;;5039338;28;93134;-51
2022/09/04 04:18:56;;;;;;;2.37;1.30;;;28.60;74.50;;;;;;5041921;28;92165;-51
2022/09/04 04:21:31;;;;;;;2.17;1.23;;;28.60;73.60;;;;;;5039015;28;95309;-52
2022/09/04 04:24:13;;;;;;;1.30;1.20;;;28.60;73.60;;;;;;5040072;28;94907;-51
2022/09/04 04:26:49;;;;;;;1.20;1.10;;;28.60;73.90;;;;;;5039128;27;92090;-52
2022/09/04 04:29:39;;;;;;;1.53;1.10;;;28.60;73.90;;;;;;5041168;28;92449;-51
2022/09/04 04:32:40;;;;;;;2.47;1.50;;;28.60;73.90;;;;;;5039947;28;94408;-52
2022/09/04 04:35:15;;;;;;;3.10;1.70;;;28.60;73.90;;;;;;5040074;28;93089;-52
2022/09/04 04:37:50;;;;;;;2.40;1.47;;;28.60;73.90;;;;;;5040878;28;92064;-51
2022/09/04 04:40:21;;;;;;;1.63;1.30;;;;;;;;;;5040694;28;91307;-51
2022/09/04 04:42:52;;;;;;;2.43;1.40;;;28.50;71.20;;;;;;5039636;28;94319;-50
2022/09/04 04:48:50;;;;;;;1.70;1.43;;;28.50;73.90;;;;;;5039401;28;93188;-50
2022/09/04 04:51:39;;;;;;;1.60;1.10;;;28.50;74.20;;;;;;5040374;27;92185;-50
2022/09/04 04:54:19;;;;;;;2.07;1.20;;;28.50;74.10;;;;;;5024361;28;94103;-50
2022/09/04 04:56:50;;;;;;;3.07;1.40;;;28.50;74.10;;;;;;5039729;28;93877;-51
2022/09/04 04:59:22;;;;;;;3.27;1.50;;;28.50;74.20;;;;;;5040214;28;92151;-50
2022/09/04 05:01:55;;;;;;;1.67;1.53;;;28.60;74.20;;;;;;5039827;27;92078;-50
2022/09/04 05:04:28;;;;;;;1.37;1.27;;;28.60;74.20;;;;;;5039470;28;93132;-52
2022/09/04 05:06:59;;;;;;;2.47;1.60;;;28.50;74.00;;;;;;5038001;28;93816;-51
2022/09/04 05:09:34;;;;;;;1.33;1.03;;;28.50;74.20;;;;;;5038947;28;92163;-51
2022/09/04 05:12:06;;;;;;;1.93;1.47;;;28.50;74.20;;;;;;5038677;28;92332;-53
2022/09/04 05:14:41;;;;;;;3.27;1.50;;;28.60;74.10;;;;;;5037751;27;95292;-54
2022/09/04 05:17:17;;;;;;;2.47;1.47;;;28.20;74.00;;;;;;5035908;28;95410;-54
2022/09/04 05:19:47;;;;;;;2.33;1.80;;;28.60;74.40;;;;;;5030689;27;92112;-54
2022/09/04 05:22:22;;;;;;;2.13;1.50;;;28.60;74.40;;;;;;5024953;28;92082;-53
2022/09/04 05:24:57;;;;;;;2.80;1.60;;;28.60;74.60;;;;;;5034586;28;94581;-53
2022/09/04 05:27:52;;;;;;;1.90;1.70;;;28.50;74.50;;;;;;5022888;28;92794;-53
2022/09/04 05:30:21;;;;;;;2.00;1.57;;;28.50;75.30;;;;;;5039747;28;92166;-53
2022/09/04 05:32:55;;;;;;;2.90;1.67;;;28.60;74.70;;;;;;5038399;27;91345;-53
2022/09/04 05:35:27;;;;;;;2.73;1.87;;;28.60;74.50;;;;;;5039479;28;94473;-53
2022/09/04 05:38:06;;;;;;;3.67;1.80;;;28.60;74.50;;;;;;5039456;28;93865;-53
2022/09/04 05:40:44;;;;;;;2.13;1.87;;;28.60;74.60;;;;;;5038323;28;93058;-53
2022/09/04 05:43:19;;;;;;;2.00;1.50;;;28.60;74.80;;;;;;5039354;28;92121;-54
2022/09/04 05:45:52;;;;;;;2.30;1.83;;;28.60;74.80;;;;;;5038726;28;94162;-54
2022/09/04 05:48:22;;;;;;;2.83;1.70;;;28.70;74.80;;;;;;5039495;28;92814;-53
2022/09/04 05:51:07;;;;;;;1.63;1.23;;;28.60;75.60;;;;;;5038096;28;92904;-53
2022/09/04 05:54:04;;;;;;;2.70;2.03;;;28.70;74.70;;;;;;5039412;28;92210;-53
2022/09/04 05:56:39;;;;;;;4.87;1.77;;;28.70;74.80;;;;;;5038718;28;94323;-53
2022/09/04 05:59:31;;;;;;;1.93;1.67;;;28.70;74.80;;;;;;5038004;28;93978;-53
2022/09/04 06:02:10;;;;;;;3.10;2.03;;;28.70;74.80;;;;;;5038111;28;92156;-53
2022/09/04 06:05:08;;;;;;;2.20;1.63;;;28.80;75.00;;;;;;5038159;28;93210;-54
2022/09/04 06:07:38;;;;;;;3.60;2.07;;;28.80;74.90;;;;;;5027595;27;95112;-54
2022/09/04 06:10:11;;;;;;;9.60;2.00;;;28.80;75.80;;;;;;5037811;28;95018;-53
2022/09/04 06:13:01;;;;;;;2.40;1.90;;;28.80;74.90;;;;;;5039228;28;92513;-54
2022/09/04 06:15:36;;;;;;;6.93;2.33;;;28.80;75.10;;;;;;5021454;28;92298;-53
2022/09/04 06:18:14;;;;;;;3.43;2.37;;;28.80;75.10;;;;;;5037480;28;93728;-53
2022/09/04 06:20:54;;;;;;;2.73;2.40;;;28.90;76.00;;;;;;5037589;28;93967;-53
2022/09/04 06:23:33;;;;;;;3.13;2.27;;;29.00;75.20;;;;;;5034780;28;92088;-53
2022/09/04 06:26:16;;;;;;;3.97;2.20;;;28.90;75.20;;;;;;5031343;27;91390;-53
2022/09/04 06:29:08;;;;;;;3.93;2.23;;;28.90;75.20;;;;;;5038232;28;93112;-53
2022/09/04 06:31:52;;;;;;;4.60;2.63;;;28.90;75.20;;;;;;5019287;28;94091;-54
2022/09/04 06:34:22;;;;;;;4.40;2.03;;;29.00;75.30;;;;;;5037203;28;93147;-52
2022/09/04 06:36:55;;;;;;;3.23;2.10;;;;;;;;;;5038769;28;91983;-54
2022/09/04 06:39:37;;;;;;;3.43;2.13;;;28.90;72.60;;;;;;5037492;28;93244;-53
2022/09/04 06:42:23;;;;;;;2.53;1.90;;;28.90;75.50;;;;;;5038251;28;93865;-53
2022/09/04 06:44:58;;;;;;;3.10;1.93;;;29.00;75.50;;;;;;5038028;28;93064;-54
2022/09/04 06:47:30;;;;;;;3.70;2.87;;;29.00;75.50;;;;;;5037970;28;92115;-53
2022/09/04 06:50:20;;;;;;;3.33;2.10;;;29.00;75.50;;;;;;5033548;28;92108;-54
2022/09/04 06:52:58;;;;;;;3.23;2.50;;;29.00;75.60;;;;;;5037425;28;93986;-54
2022/09/04 06:55:33;;;;;;;4.43;2.53;;;29.10;75.50;;;;;;5036765;28;92125;-53
2022/09/04 06:58:14;;;;;;;3.90;2.43;;;29.10;75.70;;;;;;5037619;28;92160;-53
2022/09/04 07:00:45;;;;;;;3.70;2.40;;;29.10;75.70;;;;;;5036993;28;94201;-54
2022/09/04 07:03:31;;;;;;;4.43;2.40;;;29.10;75.60;;;;;;5036228;28;93930;-53
2022/09/04 07:06:00;;;;;;;5.50;3.07;;;29.10;75.80;;;;;;5031245;28;92323;-53
2022/09/04 07:08:38;;;;;;;4.43;2.57;;;29.10;75.90;;;;;;5037088;28;92584;-53
2022/09/04 07:11:15;;;;;;;4.30;2.53;;;29.10;76.00;;;;;;5027438;28;93279;-53
2022/09/04 07:13:59;;;;;;;3.80;2.63;;;29.10;76.80;;;;;;5037898;28;93918;-53
2022/09/04 07:16:35;;;;;;;6.43;2.70;;;29.10;75.90;;;;;;5038270;28;92297;-54
2022/09/04 07:19:32;;;;;;;3.47;2.80;;;29.10;76.00;;;;;;5038869;28;91359;-53
2022/09/04 07:22:12;;;;;;;4.10;2.90;;;29.10;76.00;;;;;;5034859;28;94159;-53
2022/09/04 07:24:55;;;;;;;4.90;2.40;;;29.20;76.00;;;;;;5037481;28;92782;-54
2022/09/04 07:27:33;;;;;;;6.43;3.50;;;29.20;76.10;;;;;;5035178;28;93005;-54
2022/09/04 07:30:04;;;;;;;5.07;3.10;;;29.20;76.00;;;;;;5034387;28;92171;-54
2022/09/04 07:32:36;;;;;;;5.30;3.43;;;29.20;76.10;;;;;;5032465;28;94197;-54
2022/09/04 07:35:07;;;;;;;4.73;3.43;;;29.20;76.20;;;;;;5034716;28;94124;-54
2022/09/04 07:37:38;;;;;;;7.67;3.93;;;29.20;76.20;;;;;;5032837;28;92056;-54
2022/09/04 07:40:10;;;;;;;6.47;3.93;;;29.20;76.20;;;;;;5036830;28;92113;-53
2022/09/04 07:42:41;;;;;;;9.40;5.20;;;29.20;76.20;;;;;;5036802;28;93312;-55
2022/09/04 07:45:15;;;;;;;11.77;5.20;;;29.20;76.30;;;;;;5036765;28;93950;-54
2022/09/04 07:47:43;;;;;;;7.37;4.63;;;29.20;76.30;;;;;;5037243;28;92432;-55
2022/09/04 07:50:14;;;;;;;8.93;4.67;;;29.20;76.30;;;;;;5033090;28;92217;-54
2022/09/04 07:52:54;;;;;;;11.33;5.73;;;29.20;76.30;;;;;;5031869;28;95243;-54
2022/09/04 07:55:25;;;;;;;10.23;5.77;;;29.20;76.30;;;;;;5031941;28;93744;-54
2022/09/04 07:58:32;;;;;;;8.87;5.30;;;29.20;76.40;;;;;;5036528;28;92120;-54
2022/09/04 08:01:12;;;;;;;7.80;4.70;;;29.20;76.30;;;;;;4941254;28;93143;-54
2022/09/04 08:03:49;;;;;;;9.70;4.73;;;29.20;76.40;;;;;;4955824;28;94199;-54
2022/09/04 08:06:23;;;;;;;9.60;4.97;;;29.30;76.60;;;;;;5009402;28;93785;-54
2022/09/04 08:09:24;;;;;;;9.37;5.63;;;29.20;76.50;;;;;;5037279;28;93020;-54
2022/09/04 08:12:30;;;;;;;10.93;5.57;;;29.20;76.60;;;;;;5011078;28;91569;-56
2022/09/04 08:15:03;;;;;;;8.87;5.13;;;29.20;76.80;;;;;;5033222;28;92660;-54
2022/09/04 08:17:51;;;;;;;9.77;5.57;;;29.20;77.00;;;;;;5034216;28;94076;-54
2022/09/04 08:20:31;;;;;;;11.83;5.80;;;29.30;77.20;;;;;;5028698;28;93145;-54
2022/09/04 08:23:05;;;;;;;10.47;6.00;;;29.20;77.00;;;;;;5034892;28;92043;-54
2022/09/04 08:25:44;;;;;;;12.80;5.50;;;29.20;77.10;;;;;;5033779;28;94315;-54
2022/09/04 08:28:21;;;;;;;13.17;6.70;;;29.20;77.20;;;;;;5033040;28;93025;-54
2022/09/04 08:30:53;;;;;;;12.33;6.30;;;29.30;77.30;;;;;;5035418;27;92157;-54
2022/09/04 08:33:39;;;;;;;12.03;5.73;;;29.20;77.30;;;;;;5035879;28;92683;-53
2022/09/04 08:36:09;;;;;;;13.50;6.17;;;29.20;77.30;;;;;;5024670;28;95419;-54
2022/09/04 08:38:46;;;;;;;11.40;7.40;;;29.20;77.30;;;;;;5036210;28;93808;-54
2022/09/04 08:42:11;;;;;;;16.97;6.63;;;29.20;77.30;;;;;;5035648;28;92190;-54
2022/09/04 08:45:17;;;;;;;10.23;5.40;;;29.30;77.50;;;;;;5034756;28;92108;-54
2022/09/04 08:48:31;;;;;;;15.40;6.37;;;29.30;77.50;;;;;;5033365;28;94954;-54
2022/09/04 08:51:38;;;;;;;11.63;4.87;;;29.20;77.30;;;;;;5036453;28;94935;-54
2022/09/04 08:54:41;;;;;;;11.80;6.57;;;29.20;77.40;;;;;;5034675;28;92340;-52
2022/09/04 08:57:22;;;;;;;13.37;6.37;;;29.30;77.50;;;;;;5037891;28;92671;-53
2022/09/04 09:00:06;;;;;;;12.07;6.00;;;29.30;77.60;;;;;;5036263;28;93303;-53
2022/09/04 09:02:56;;;;;;;10.60;6.33;;;29.30;77.70;;;;;;5037347;28;92615;-54
2022/09/04 09:05:52;;;;;;;10.90;5.63;;;29.30;77.50;;;;;;5039409;28;92600;-55
2022/09/04 09:08:57;;;;;;;9.30;6.03;;;29.20;77.40;;;;;;5035211;27;92644;-53
2022/09/04 09:11:49;;;;;;;12.40;5.47;;;29.30;77.70;;;;;;5037905;28;94245;-55
2022/09/04 09:14:26;;;;;;;13.40;5.70;;;29.30;77.70;;;;;;5004175;28;94092;-55
2022/09/04 09:17:01;;;;;;;9.10;5.97;;;29.30;78.00;;;;;;5033598;28;93247;-59
2022/09/04 09:19:40;;;;;;;11.90;6.50;;;29.30;78.10;;;;;;5036509;28;92030;-57
2022/09/04 09:22:10;;;;;;;12.67;6.00;;;29.40;78.20;;;;;;5036239;28;93169;-57
2022/09/04 09:25:12;;;;;;;12.00;5.37;;;29.40;78.20;;;;;;5037088;28;93986;-56
2022/09/04 09:28:06;;;;;;;8.07;4.53;;;29.30;78.10;;;;;;5033515;28;92169;-57
2022/09/04 09:30:36;;;;;;;11.10;5.17;;;29.30;78.20;;;;;;5037269;28;92126;-57
2022/09/04 09:33:38;;;;;;;11.93;5.30;;;29.30;78.50;;;;;;5036815;28;94211;-56
2022/09/04 09:36:37;;;;;;;10.50;5.57;;;29.30;78.50;;;;;;5037929;28;94118;-56
2022/09/04 09:39:18;;;;;;;9.07;4.90;;;;;;;;;;5022646;28;92472;-56
2022/09/04 09:42:08;;;;;;;10.57;5.37;;;29.20;76.00;;;;;;5037839;28;92253;-57
2022/09/04 09:45:10;;;;;;;9.73;4.80;;;29.20;79.60;;;;;;5036475;28;95257;-56
2022/09/04 09:47:49;;;;;;;11.57;5.53;;;29.30;78.90;;;;;;5034656;28;94983;-56
2022/09/04 09:50:47;;;;;;;12.27;5.20;;;29.30;79.80;;;;;;5037722;28;92124;-56
2022/09/04 09:53:47;;;;;;;12.13;4.97;;;29.30;79.00;;;;;;5037803;28;92357;-57
2022/09/04 09:56:43;;;;;;;9.87;4.20;;;29.30;78.90;;;;;;4971771;28;93829;-57
2022/09/04 10:00:01;;;;;;;6.97;3.87;;;29.30;78.90;;;;;;5034789;28;93388;-57
2022/09/04 10:03:00;;;;;;;7.87;4.40;;;29.30;78.90;;;;;;5010056;28;92315;-56
2022/09/04 10:05:50;;;;;;;10.33;4.50;;;29.30;79.10;;;;;;5036678;28;91523;-57
2022/09/04 10:08:38;;;;;;;6.83;4.20;;;29.30;79.10;;;;;;5036488;28;94276;-58
2022/09/04 10:11:30;;;;;;;7.67;3.80;;;29.40;79.10;;;;;;5038671;27;92799;-58
2022/09/04 10:14:05;;;;;;;7.60;3.80;;;;;;;;;;5048947;27;93076;-57
2022/09/04 10:16:52;;;;;;;9.13;4.10;;;29.30;76.40;;;;;;5049255;27;92675;-57
2022/09/04 10:20:02;;;;;;;6.13;3.80;;;29.40;79.20;;;;;;5043137;27;94271;-56
2022/09/04 10:23:12;;;;;;;7.77;3.83;;;29.40;79.10;;;;;;5046855;27;92903;-57
2022/09/04 10:25:59;;;;;;;10.40;4.53;;;29.40;79.00;;;;;;5030257;27;92149;-56
2022/09/04 10:29:10;;;;;;;7.13;3.70;;;29.50;79.10;;;;;;5045643;27;92194;-56
2022/09/04 10:31:48;;;;;;;5.00;3.17;;;29.50;79.00;;;;;;5044420;27;93151;-57
2022/09/04 10:34:27;;;;;;;6.00;3.53;;;29.50;79.00;;;;;;5046995;27;92727;-57
2022/09/04 10:37:01;;;;;;;7.27;4.17;;;29.50;79.10;;;;;;5047443;27;92072;-56
2022/09/04 10:42:22;;;;;;;10.10;3.67;;;;;;;;;;5045830;27;95068;-56
2022/09/04 10:45:14;;;;;;;4.60;2.83;;;;;;;;;;5046800;27;95184;-56
2022/09/04 10:47:51;;;;;;;7.67;4.30;;;;;;;;;;5047231;27;92156;-56
2022/09/04 10:50:28;;;;;;;7.80;3.93;;;;;;;;;;5046810;27;92174;-57
2022/09/04 10:53:11;;;;;;;6.67;3.70;;;;;;;;;;5056152;27;94305;-55
2022/09/04 10:55:42;;;;;;;5.53;2.63;;;;;;;;;;5038265;27;94009;-59
2022/09/04 10:58:15;;;;;;;5.63;3.23;;;;;;;;;;5049108;27;92068;-58
2022/09/04 11:00:49;;;;;;;3.93;3.07;;;;;;;;;;5048897;27;91381;-59
2022/09/04 11:03:27;;;;;;;6.27;3.50;;;;;;;;;;5047838;27;94172;-57
2022/09/04 11:06:14;;;;;;;5.07;2.93;;;;;;;;;;5043428;27;93962;-56
2022/09/04 11:09:00;;;;;;;6.67;2.97;;;;;;;;;;5044987;27;93484;-56
2022/09/04 11:11:33;;;;;;;15.13;3.20;;;;;;;;;;5047844;27;93032;-57
2022/09/04 11:14:10;;;;;;;4.87;3.30;;;;;;;;;;5046274;27;94202;-56
2022/09/04 11:16:49;;;;;;;4.10;3.00;;;;;;;;;;5044974;27;92735;-56
2022/09/04 11:19:29;;;;;;;5.23;3.03;;;;;;;;;;5044594;27;92471;-56
2022/09/04 11:22:19;;;;;;;3.70;2.33;;;;;;;;;;5037738;27;92254;-55
2022/09/04 11:24:59;;;;;;;4.10;2.43;;;;;;;;;;5022220;27;94302;-56
2022/09/04 11:27:48;;;;;;;5.07;2.73;;;;;;;;;;5047642;27;92593;-56
2022/09/04 11:30:19;;;;;;;5.67;2.57;;;;;;;;;;5044739;27;92159;-56
2022/09/04 11:32:52;;;;;;;5.27;2.73;;;;;;;;;;5045727;27;93344;-56
2022/09/04 11:35:31;;;;;;;5.07;2.27;;;;;;;;;;5048829;27;95100;-57
2022/09/04 11:37:59;;;;;;;2.47;2.00;;;;;;;;;;5038505;27;94836;-57
2022/09/04 11:40:39;;;;;;;4.53;2.90;;;;;;;;;;5045815;27;92106;-56
2022/09/04 11:43:25;;;;;;;3.37;1.90;;;;;;;;;;5047444;27;92006;-56
2022/09/04 11:46:01;;;;;;;2.77;2.13;;;;;;;;;;5045252;27;94181;-56
2022/09/04 11:48:57;;;;;;;5.77;2.50;;;29.80;63.70;;;;;;5037525;27;93904;-56
2022/09/04 11:51:54;;;;;;;2.70;1.93;;;29.80;67.70;;;;;;5012793;27;92235;-57
2022/09/04 11:54:50;;;;;;;4.17;1.83;;;29.90;67.80;;;;;;5044573;27;91694;-57
2022/09/04 11:57:22;;;;;;;3.97;2.77;;;29.90;68.00;;;;;;5042928;27;94138;-56
2022/09/04 12:00:10;;;;;;;3.70;2.73;;;29.90;68.10;;;;;;5043057;27;92842;-56
2022/09/04 12:03:12;;;;;;;4.33;2.43;;;29.80;68.70;;;;;;5030740;27;93962;-57
2022/09/04 12:05:53;;;;;;;7.70;3.20;;;29.90;68.00;;;;;;5044725;27;92189;-55
2022/09/04 12:08:50;;;;;;;2.87;2.13;;;29.90;68.00;;;;;;5042492;27;93138;-57
2022/09/04 12:12:06;;;;;;;2.60;2.10;;;29.90;68.00;;;;;;5019355;27;93773;-56
2022/09/04 12:14:57;;;;;;;2.13;1.90;;;30.00;68.20;;;;;;5015504;27;92055;-56
2022/09/04 12:17:55;;;;;;;4.73;2.17;;;29.90;68.40;;;;;;5032368;27;92211;-57
2022/09/04 12:20:39;;;;;;;3.27;2.13;;;30.00;69.30;;;;;;5044433;27;93306;-57
2022/09/04 12:23:17;;;;;;;3.47;2.17;;;30.00;69.60;;;;;;5046115;27;93616;-56
2022/09/04 12:26:00;;;;;;;2.97;2.10;;;30.00;69.60;;;;;;5049015;27;92110;-57
2022/09/04 12:28:56;;;;;;;4.43;2.43;;;30.10;69.70;;;;;;5047042;27;92169;-59
2022/09/04 12:31:45;;;;;;;3.27;1.80;;;30.00;69.60;;;;;;5046287;27;94277;-56
2022/09/04 12:34:38;;;;;;;3.27;2.10;;;30.00;69.80;;;;;;5048342;27;94846;-57
2022/09/04 12:37:22;;;;;;;4.00;2.67;;;30.10;72.10;;;;;;5047973;27;91977;-56
2022/09/04 12:40:13;;;;;;;4.80;2.33;;;30.00;71.80;;;;;;5045883;27;92122;-56
2022/09/04 12:42:44;;;;;;;4.60;2.63;;;30.10;72.00;;;;;;5046413;27;94277;-57
2022/09/04 12:45:19;;;;;;;4.13;2.43;;;30.10;72.00;;;;;;5044362;27;93942;-55
2022/09/04 12:47:52;;;;;;;8.00;2.80;;;30.10;72.10;;;;;;5042111;27;93622;-57
2022/09/04 12:50:27;;;;;;;3.77;1.90;;;;;;;;;;5044511;27;91453;-57
2022/09/04 12:53:04;;;;;;;4.30;2.47;;;30.10;63.60;;;;;;5038819;27;92648;-57
2022/09/04 12:55:37;;;;;;;2.10;1.60;;;30.20;68.90;;;;;;5040772;27;93870;-56
2022/09/04 12:58:12;;;;;;;2.97;2.00;;;30.20;69.00;;;;;;5043338;27;93549;-56
2022/09/04 13:00:43;;;;;;;5.67;1.80;;;30.20;70.20;;;;;;5040591;27;92243;-57
2022/09/04 13:03:20;;;;;;;3.43;1.90;;;30.30;71.70;;;;;;5053840;27;92191;-56
2022/09/04 13:06:02;;;;;;;2.50;1.97;;;;;;;;;;5043610;27;93904;-57
2022/09/04 13:08:34;;;;;;;2.17;1.87;;;;;;;;;;5043062;27;92083;-55
2022/09/04 13:11:06;;;;;;;7.40;2.50;;;;;;;;;;5041936;27;92913;-58
2022/09/04 13:13:40;;;;;;;4.27;2.67;;;;;;;;;;5049197;27;94246;-56
2022/09/04 13:16:10;;;;;;;5.30;3.13;;;;;;;;;;5048099;27;92700;-58
2022/09/04 13:18:45;;;;;;;4.27;2.93;;;;;;;;;;5049662;27;92134;-58
2022/09/04 13:21:18;;;;;;;5.57;2.73;;;;;;;;;;5044631;27;92138;-58
2022/09/04 13:23:49;;;;;;;4.63;2.67;;;;;;;;;;5047796;27;95184;-58
2022/09/04 13:26:32;;;;;;;5.37;2.73;;;30.40;61.30;;;;;;5045786;27;93655;-58
2022/09/04 13:29:07;;;;;;;5.63;2.70;;;30.40;66.90;;;;;;5045197;27;92048;-58
2022/09/04 13:31:54;;;;;;;5.30;2.80;;;30.50;67.00;;;;;;5047045;27;92106;-58
2022/09/04 13:34:24;;;;;;;5.33;2.83;;;30.50;67.10;;;;;;5047579;27;93623;-58
2022/09/04 13:37:02;;;;;;;4.63;1.97;;;30.50;66.80;;;;;;5042568;27;93938;-59
2022/09/04 13:40:04;;;;;;;4.67;2.13;;;30.50;66.80;;;;;;5046660;27;92018;-58
2022/09/04 13:43:10;;;;;;;5.87;2.30;;;30.40;66.50;;;;;;5038541;27;91613;-57
2022/09/04 13:45:39;;;;;;;4.57;2.03;;;30.50;66.60;;;;;;5037710;28;93199;-59
2022/09/04 13:48:09;;;;;;;3.63;1.90;;;30.50;66.50;;;;;;5038743;28;93703;-58
2022/09/04 13:50:39;;;;;;;2.80;1.90;;;30.40;66.40;;;;;;5036891;28;93099;-58
2022/09/04 13:53:15;;;;;;;4.70;2.50;;;30.40;66.20;;;;;;5039051;27;91992;-58
2022/09/04 13:55:45;;;;;;;1.93;1.63;;;30.50;66.10;;;;;;5047359;27;94131;-57
2022/09/04 13:58:18;;;;;;;2.40;1.57;;;30.50;65.90;;;;;;5039426;28;92761;-58
2022/09/04 14:00:48;;;;;;;2.70;1.67;;;30.50;65.80;;;;;;5043882;27;92527;-59
2022/09/04 14:03:30;;;;;;;4.23;2.00;;;30.50;65.80;;;;;;5046556;27;93123;-57
2022/09/04 14:05:59;;;;;;;5.43;2.40;;;30.50;65.50;;;;;;5041912;27;93179;-57
2022/09/04 14:08:30;;;;;;;5.10;2.67;;;30.50;65.60;;;;;;5050853;27;93966;-57
2022/09/04 14:11:46;;;;;;;5.30;2.20;;;30.50;65.40;;;;;;5051453;27;92158;-57